createdAt,value
2018-09-19T00:00:24.536Z,100618.70
2018-09-19T00:02:48.440Z,100622.39
2018-09-19T00:05:12.371Z,100625.17
2018-09-19T00:07:36.241Z,100625.17
2018-09-19T00:10:00.144Z,100629.48
2018-09-19T00:12:24.027Z,100630.00
2018-09-19T00:14:47.904Z,100623.11
2018-09-19T00:17:11.841Z,100627.19
2018-09-19T00:19:35.730Z,100631.19
2018-09-19T00:21:59.620Z,100626.55
2018-09-19T00:24:23.543Z,100625.92
2018-09-19T00:26:47.460Z,100620.39
2018-09-19T00:29:11.374Z,100622.81
2018-09-19T00:31:35.286Z,100632.25
2018-09-19T00:33:59.162Z,100638.41
2018-09-19T00:36:23.619Z,100642.26
2018-09-19T00:38:47.509Z,100639.17
2018-09-19T00:41:11.428Z,100641.98
2018-09-19T00:43:35.359Z,100640.84
2018-09-19T00:45:59.258Z,100647.67
2018-09-19T00:48:23.131Z,100646.37
2018-09-19T00:50:47.053Z,100643.79
2018-09-19T00:53:10.961Z,100651.39
2018-09-19T00:55:34.872Z,100648.70
2018-09-19T00:57:58.873Z,100652.03
2018-09-19T01:00:22.752Z,100650.46
2018-09-19T01:02:46.635Z,100652.61
2018-09-19T01:05:10.573Z,100650.61
2018-09-19T01:07:34.497Z,100653.98
2018-09-19T01:09:58.445Z,100648.47
2018-09-19T01:12:22.354Z,100654.80
2018-09-19T01:14:46.320Z,100653.70
2018-09-19T01:17:10.249Z,100649.83
2018-09-19T01:19:34.164Z,100648.67
2018-09-19T01:21:58.094Z,100647.52
2018-09-19T01:24:21.977Z,100654.39
2018-09-19T01:26:45.913Z,100651.66
2018-09-19T01:29:09.784Z,100644.78
2018-09-19T01:31:33.680Z,100650.34
2018-09-19T01:33:57.786Z,100654.20
2018-09-19T01:36:21.666Z,100650.66
2018-09-19T01:38:45.639Z,100654.84
2018-09-19T01:41:09.579Z,100657.66
2018-09-19T01:43:33.565Z,100654.88
2018-09-19T01:45:57.535Z,100663.00
2018-09-19T01:48:21.736Z,100662.25
2018-09-19T01:50:45.783Z,100662.31
2018-09-19T01:53:09.788Z,100671.52
2018-09-19T01:55:33.781Z,100673.98
2018-09-19T01:57:57.771Z,100684.61
2018-09-19T02:00:21.727Z,100683.78
2018-09-19T02:02:45.827Z,100683.61
2018-09-19T02:05:09.858Z,100685.54
2018-09-19T02:07:33.799Z,100689.62
2018-09-19T02:09:57.829Z,100689.96
2018-09-19T02:12:21.711Z,100688.02
2018-09-19T02:14:45.757Z,100689.96
2018-09-19T02:17:09.630Z,100692.05
2018-09-19T02:19:33.589Z,100692.78
2018-09-19T02:21:57.555Z,100693.71
2018-09-19T02:24:21.417Z,100688.48
2018-09-19T02:26:45.342Z,100688.12
2018-09-19T02:29:09.410Z,100692.77
2018-09-19T02:31:33.510Z,100644.69
2018-09-19T02:33:57.410Z,100692.67
2018-09-19T02:36:25.353Z,100684.94
2018-09-19T02:38:49.483Z,100689.16
2018-09-19T02:41:13.453Z,100695.58
2018-09-19T02:43:37.361Z,100702.98
2018-09-19T02:46:01.283Z,100691.66
2018-09-19T02:48:25.227Z,100694.17
2018-09-19T02:50:49.095Z,100696.03
2018-09-19T02:53:12.989Z,100697.39
2018-09-19T02:55:36.858Z,100700.30
2018-09-19T02:58:00.794Z,100704.88
2018-09-19T03:00:24.704Z,100701.94
2018-09-19T03:02:48.679Z,100702.09
2018-09-19T03:05:12.585Z,100701.70
2018-09-19T03:07:36.540Z,100704.90
2018-09-19T03:10:00.463Z,100703.79
2018-09-19T03:12:24.413Z,100703.65
2018-09-19T03:14:48.300Z,100704.24
2018-09-19T03:17:12.238Z,100694.08
2018-09-19T03:19:36.131Z,100701.72
2018-09-19T03:21:59.999Z,100708.45
2018-09-19T03:24:24.003Z,100709.56
2018-09-19T03:26:47.859Z,100710.55
2018-09-19T03:29:11.759Z,100707.76
2018-09-19T03:31:35.679Z,100714.39
2018-09-19T03:33:59.570Z,100725.25
2018-09-19T03:36:23.480Z,100728.77
2018-09-19T03:38:47.421Z,100733.91
2018-09-19T03:41:11.364Z,100733.28
2018-09-19T03:43:35.254Z,100734.54
2018-09-19T03:45:59.124Z,100734.97
2018-09-19T03:48:23.056Z,100741.54
2018-09-19T03:50:46.999Z,100736.83
2018-09-19T03:53:10.887Z,100739.38
2018-09-19T03:55:34.763Z,100741.80
2018-09-19T03:57:58.711Z,100744.25
2018-09-19T04:00:22.570Z,100742.25
2018-09-19T04:02:46.468Z,100746.84
2018-09-19T04:05:10.391Z,100752.84
2018-09-19T04:07:34.323Z,100756.50
2018-09-19T04:09:58.200Z,100753.33
2018-09-19T04:12:22.120Z,100754.19
2018-09-19T04:14:46.044Z,100753.38
2018-09-19T04:17:09.993Z,100755.78
2018-09-19T04:19:33.934Z,100757.88
2018-09-19T04:21:57.802Z,100756.67
2018-09-19T04:24:21.727Z,100768.16
2018-09-19T04:26:45.677Z,100761.25
2018-09-19T04:29:09.569Z,100760.05
2018-09-19T04:31:33.510Z,100760.20
2018-09-19T04:33:57.400Z,100761.43
2018-09-19T04:36:21.314Z,100762.37
2018-09-19T04:38:45.169Z,100759.72
2018-09-19T04:41:09.165Z,100761.70
2018-09-19T04:43:33.136Z,100757.75
2018-09-19T04:45:57.041Z,100763.78
2018-09-19T04:48:21.057Z,100761.09
2018-09-19T04:50:44.934Z,100753.95
2018-09-19T04:53:09.140Z,100760.52
2018-09-19T04:55:33.042Z,100760.47
2018-09-19T04:57:56.984Z,100761.97
2018-09-19T05:00:20.908Z,100765.93
2018-09-19T05:02:44.798Z,100770.16
2018-09-19T05:05:08.725Z,100779.06
2018-09-19T05:07:32.633Z,100782.45
2018-09-19T05:09:56.561Z,100775.31
2018-09-19T05:12:20.491Z,100784.89
2018-09-19T05:14:44.394Z,100784.20
2018-09-19T05:17:08.286Z,100793.33
2018-09-19T05:19:32.212Z,100793.83
2018-09-19T05:21:56.126Z,100798.63
2018-09-19T05:24:20.033Z,100787.87
2018-09-19T05:26:43.903Z,100791.38
2018-09-19T05:29:07.881Z,100794.62
2018-09-19T05:31:31.921Z,100789.81
2018-09-19T05:33:55.784Z,100794.79
2018-09-19T05:36:19.700Z,100796.02
2018-09-19T05:38:43.610Z,100800.31
2018-09-19T05:41:07.785Z,100803.05
2018-09-19T05:43:31.657Z,100800.23
2018-09-19T05:45:55.659Z,100804.27
2018-09-19T05:48:19.659Z,100812.61
2018-09-19T05:50:43.525Z,100817.66
2018-09-19T05:53:07.437Z,100819.25
2018-09-19T05:55:31.315Z,100820.27
2018-09-19T05:57:55.325Z,100823.91
2018-09-19T06:00:19.223Z,100820.24
2018-09-19T06:02:43.085Z,100815.86
2018-09-19T06:05:07.233Z,100824.16
2018-09-19T06:07:31.142Z,100826.36
2018-09-19T06:09:55.054Z,100829.91
2018-09-19T06:12:19.061Z,100832.81
2018-09-19T06:14:43.079Z,100831.20
2018-09-19T06:17:07.092Z,100829.35
2018-09-19T06:19:30.971Z,100836.63
2018-09-19T06:21:54.911Z,100833.98
2018-09-19T06:24:18.838Z,100835.92
2018-09-19T06:26:42.720Z,100837.57
2018-09-19T06:29:06.789Z,100837.48
2018-09-19T06:31:30.686Z,100835.42
2018-09-19T06:33:54.567Z,100839.80
2018-09-19T06:36:18.584Z,100840.08
2018-09-19T06:38:42.502Z,100840.59
2018-09-19T06:41:06.372Z,100834.66
2018-09-19T06:43:30.439Z,100842.56
2018-09-19T06:45:54.339Z,100841.77
2018-09-19T06:48:18.294Z,100840.82
2018-09-19T06:50:42.315Z,100845.43
2018-09-19T06:53:06.329Z,100840.59
2018-09-19T06:55:30.185Z,100839.79
2018-09-19T06:57:54.097Z,100847.91
2018-09-19T07:00:17.992Z,100839.80
2018-09-19T07:02:41.897Z,100844.05
2018-09-19T07:05:05.968Z,100847.63
2018-09-19T07:07:29.831Z,100851.48
2018-09-19T07:09:53.723Z,100846.38
2018-09-19T07:12:17.633Z,100852.66
2018-09-19T07:14:41.525Z,100857.40
2018-09-19T07:17:05.491Z,100848.88
2018-09-19T07:19:29.504Z,100856.70
2018-09-19T07:21:53.558Z,100857.52
2018-09-19T07:24:17.446Z,100859.02
2018-09-19T07:26:41.583Z,100851.50
2018-09-19T07:29:05.674Z,100853.49
2018-09-19T07:31:29.533Z,100858.53
2018-09-19T07:33:53.493Z,100864.55
2018-09-19T07:36:17.394Z,100848.33
2018-09-19T07:38:41.388Z,100840.92
2018-09-19T07:41:05.269Z,100845.86
2018-09-19T07:43:29.341Z,100848.76
2018-09-19T07:45:53.349Z,100858.42
2018-09-19T07:48:17.287Z,100851.77
2018-09-19T07:50:41.202Z,100856.53
2018-09-19T07:53:05.184Z,100859.11
2018-09-19T07:55:29.121Z,100866.16
2018-09-19T07:57:53.002Z,100868.23
2018-09-19T08:00:16.932Z,100870.72
2018-09-19T08:02:40.840Z,100869.89
2018-09-19T08:05:04.913Z,100874.42
2018-09-19T08:07:28.819Z,100886.26
2018-09-19T08:09:52.749Z,100841.44
2018-09-19T08:12:16.674Z,100880.84
2018-09-19T08:14:40.559Z,100877.70
2018-09-19T08:17:04.484Z,100878.09
2018-09-19T08:19:28.398Z,100866.04
2018-09-19T08:21:52.600Z,100867.48
2018-09-19T08:24:16.498Z,100853.24
2018-09-19T08:26:40.384Z,100849.48
2018-09-19T08:29:04.439Z,100857.59
2018-09-19T08:31:28.339Z,100859.77
2018-09-19T08:33:52.368Z,100860.45
2018-09-19T08:36:16.262Z,100863.02
2018-09-19T08:38:40.196Z,100859.08
2018-09-19T08:41:04.070Z,100861.42
2018-09-19T08:43:27.983Z,100853.98
2018-09-19T08:45:51.888Z,100855.91
2018-09-19T08:48:15.804Z,100860.23
2018-09-19T08:50:39.682Z,100863.41
2018-09-19T08:53:04.042Z,100859.78
2018-09-19T08:55:27.912Z,100859.58
2018-09-19T08:57:51.834Z,100857.98
2018-09-19T09:00:15.710Z,100844.45
2018-09-19T09:02:39.862Z,100859.12
2018-09-19T09:05:03.749Z,100859.64
2018-09-19T09:07:27.671Z,100855.68
2018-09-19T09:09:51.619Z,100858.12
2018-09-19T09:12:15.680Z,100855.05
2018-09-19T09:14:39.591Z,100868.70
2018-09-19T09:17:03.470Z,100864.05
2018-09-19T09:19:27.597Z,100860.86
2018-09-19T09:21:51.487Z,100854.08
2018-09-19T09:24:15.446Z,100857.75
2018-09-19T09:26:39.573Z,100851.23
2018-09-19T09:29:03.474Z,100854.02
2018-09-19T09:31:27.401Z,100854.66
2018-09-19T09:33:51.482Z,100850.64
2018-09-19T09:36:15.449Z,100859.80
2018-09-19T09:38:39.348Z,100859.91
2018-09-19T09:41:03.243Z,100866.72
2018-09-19T09:43:27.220Z,100860.33
2018-09-19T09:45:51.176Z,100855.04
2018-09-19T09:48:15.052Z,100842.57
2018-09-19T09:50:38.925Z,100847.18
2018-09-19T09:53:02.892Z,100847.21
2018-09-19T09:55:26.782Z,100836.50
2018-09-19T09:57:50.673Z,100843.47
2018-09-19T10:00:19.017Z,100839.20
2018-09-19T10:02:42.908Z,100839.81
2018-09-19T10:05:06.821Z,100842.37
2018-09-19T10:07:30.833Z,100830.27
2018-09-19T10:09:54.781Z,100820.70
2018-09-19T10:12:18.742Z,100832.23
2018-09-19T10:14:42.627Z,100830.75
2018-09-19T10:17:06.661Z,100825.64
2018-09-19T10:19:30.810Z,100829.02
2018-09-19T10:21:54.704Z,100829.78
2018-09-19T10:24:18.710Z,100825.25
2018-09-19T10:26:42.619Z,100829.31
2018-09-19T10:29:06.530Z,100828.72
2018-09-19T10:31:30.455Z,100823.28
2018-09-19T10:33:54.352Z,100818.19
2018-09-19T10:36:18.362Z,100815.02
2018-09-19T10:38:42.271Z,100802.66
2018-09-19T10:41:06.304Z,100802.15
2018-09-19T10:43:30.325Z,100794.84
2018-09-19T10:45:54.207Z,100805.76
2018-09-19T10:48:18.127Z,100794.33
2018-09-19T10:50:42.063Z,100794.40
2018-09-19T10:53:06.003Z,100791.78
2018-09-19T10:55:30.015Z,100788.91
2018-09-19T10:57:53.904Z,100790.89
2018-09-19T11:00:17.808Z,100790.11
2018-09-19T11:02:41.830Z,100776.73
2018-09-19T11:05:05.737Z,100782.11
2018-09-19T11:07:29.650Z,100776.51
2018-09-19T11:09:53.691Z,100775.08
2018-09-19T11:12:17.738Z,100776.15
2018-09-19T11:14:41.644Z,100773.95
2018-09-19T11:17:05.644Z,100773.23
2018-09-19T11:19:29.713Z,100768.21
2018-09-19T11:21:53.718Z,100766.95
2018-09-19T11:24:17.617Z,100750.00
2018-09-19T11:26:41.571Z,100755.07
2018-09-19T11:29:05.503Z,100759.43
2018-09-19T11:31:29.413Z,100758.50
2018-09-19T11:33:53.379Z,100776.44
2018-09-19T11:36:17.251Z,100766.59
2018-09-19T11:38:41.204Z,100767.14
2018-09-19T11:41:05.357Z,100758.02
2018-09-19T11:43:29.243Z,100773.30
2018-09-19T11:45:53.174Z,100765.14
2018-09-19T11:48:17.108Z,100754.27
2018-09-19T11:50:41.094Z,100746.88
2018-09-19T11:53:08.982Z,100726.55
2018-09-19T11:55:32.861Z,100745.88
2018-09-19T11:57:56.923Z,100732.02
2018-09-19T12:00:20.814Z,100734.68
2018-09-19T12:02:44.689Z,100728.50
2018-09-19T12:05:08.618Z,100725.17
2018-09-19T12:07:33.701Z,100717.19
2018-09-19T12:09:57.667Z,100719.86
2018-09-19T12:12:21.631Z,100717.65
2018-09-19T12:14:45.536Z,100715.37
2018-09-19T12:17:09.448Z,100716.62
2018-09-19T12:19:33.377Z,100723.04
2018-09-19T12:21:57.379Z,100731.31
2018-09-19T12:24:21.246Z,100723.52
2018-09-19T12:26:45.157Z,100733.23
2018-09-19T12:29:09.174Z,100731.11
2018-09-19T12:31:33.061Z,100726.28
2018-09-19T12:33:57.066Z,100728.19
2018-09-19T12:36:21.064Z,100721.30
2018-09-19T12:38:44.959Z,100718.47
2018-09-19T12:41:08.867Z,100715.16
2018-09-19T12:43:32.853Z,100717.00
2018-09-19T12:45:56.740Z,100716.83
2018-09-19T12:48:20.652Z,100713.55
2018-09-19T12:50:44.588Z,100723.16
2018-09-19T12:53:08.535Z,100708.97
2018-09-19T12:55:32.531Z,100692.07
2018-09-19T12:57:56.470Z,100698.99
2018-09-19T13:00:20.399Z,100700.11
2018-09-19T13:02:44.397Z,100688.16
2018-09-19T13:05:08.423Z,100698.34
2018-09-19T13:07:32.423Z,100689.27
2018-09-19T13:09:56.340Z,100677.14
2018-09-19T13:12:20.218Z,100678.88
2018-09-19T13:14:44.151Z,100680.78
2018-09-19T13:17:08.149Z,100691.50
2018-09-19T13:19:32.060Z,100686.94
2018-09-19T13:21:55.974Z,100685.63
2018-09-19T13:24:20.163Z,100666.48
2018-09-19T13:26:44.100Z,100667.32
2018-09-19T13:29:07.958Z,100661.19
2018-09-19T13:31:31.860Z,100656.23
2018-09-19T13:33:55.768Z,100655.00
2018-09-19T13:36:19.796Z,100653.27
2018-09-19T13:38:43.666Z,100663.58
2018-09-19T13:41:07.777Z,100649.11
2018-09-19T13:43:31.802Z,100642.05
2018-09-19T13:45:55.691Z,100649.33
2018-09-19T13:48:19.551Z,100639.39
2018-09-19T13:51:18.109Z,100641.05
2018-09-19T13:53:42.160Z,100637.13
2018-09-19T13:56:06.046Z,100628.34
2018-09-19T13:58:29.951Z,100633.80
2018-09-19T14:00:54.029Z,100626.30
2018-09-19T14:03:17.924Z,100622.45
2018-09-19T14:05:41.839Z,100624.67
2018-09-19T14:08:06.274Z,100625.70
2018-09-19T14:10:30.138Z,100625.62
2018-09-19T14:12:54.157Z,100630.91
2018-09-19T14:15:18.064Z,100620.72
2018-09-19T14:17:41.952Z,100625.38
2018-09-19T14:20:05.916Z,100624.22
2018-09-19T14:22:29.829Z,100619.38
2018-09-19T14:24:53.760Z,100615.06
2018-09-19T14:27:17.708Z,100616.63
2018-09-19T14:29:41.581Z,100615.86
2018-09-19T14:32:05.487Z,100616.89
2018-09-19T14:34:29.406Z,100604.63
2018-09-19T14:36:53.318Z,100610.39
2018-09-19T14:39:17.211Z,100605.70
2018-09-19T14:41:41.166Z,100610.95
2018-09-19T14:44:05.184Z,100601.66
2018-09-19T14:46:29.083Z,100604.50
2018-09-19T14:48:53.005Z,100601.83
2018-09-19T14:51:16.951Z,100611.93
2018-09-19T14:53:40.854Z,100590.14
2018-09-19T14:56:04.942Z,100607.19
2018-09-19T14:58:29.009Z,100601.58
2018-09-19T15:00:52.935Z,100610.91
2018-09-19T15:03:16.976Z,100591.20
2018-09-19T15:05:40.868Z,100601.88
2018-09-19T15:08:04.778Z,100591.80
2018-09-19T15:10:28.727Z,100594.49
2018-09-19T15:12:52.661Z,100592.10
2018-09-19T15:15:16.734Z,100590.07
2018-09-19T15:17:40.819Z,100583.45
2018-09-19T15:20:04.780Z,100592.27
2018-09-19T15:22:28.688Z,100576.26
2018-09-19T15:24:52.600Z,100581.67
2018-09-19T15:27:16.551Z,100565.63
2018-09-19T15:29:40.508Z,100569.14
2018-09-19T15:32:04.491Z,100572.34
2018-09-19T15:34:28.490Z,100573.39
2018-09-19T15:36:52.450Z,100575.69
2018-09-19T15:39:16.329Z,100583.41
2018-09-19T15:41:40.369Z,100587.78
2018-09-19T15:44:04.349Z,100579.00
2018-09-19T15:46:28.298Z,100584.10
2018-09-19T15:48:52.300Z,100575.02
2018-09-19T15:51:16.210Z,100585.34
2018-09-19T15:53:40.153Z,100575.34
2018-09-19T15:56:04.067Z,100578.52
2018-09-19T15:58:27.983Z,100579.83
2018-09-19T16:00:51.928Z,100576.14
2018-09-19T16:03:15.874Z,100578.29
2018-09-19T16:05:39.882Z,100582.09
2018-09-19T16:08:03.787Z,100585.13
2018-09-19T16:10:27.744Z,100581.16
2018-09-19T16:12:51.720Z,100576.14
2018-09-19T16:15:15.627Z,100580.60
2018-09-19T16:17:39.588Z,100581.05
2018-09-19T16:20:03.541Z,100549.11
2018-09-19T16:22:27.457Z,100576.12
2018-09-19T16:24:51.612Z,100580.77
2018-09-19T16:27:15.521Z,100582.32
2018-09-19T16:29:39.495Z,100578.58
2018-09-19T16:32:03.536Z,100582.01
2018-09-19T16:34:27.564Z,100587.61
2018-09-19T16:36:51.612Z,100587.70
2018-09-19T16:39:15.511Z,100582.78
2018-09-19T16:41:39.444Z,100588.55
2018-09-19T16:44:03.470Z,100593.34
2018-09-19T16:46:27.360Z,100586.36
2018-09-19T16:48:51.292Z,100584.81
2018-09-19T16:51:15.269Z,100586.66
2018-09-19T16:53:39.247Z,100587.80
2018-09-19T16:56:03.264Z,100585.33
2018-09-19T16:58:27.208Z,100585.28
2018-09-19T17:00:51.174Z,100587.61
2018-09-19T17:03:15.392Z,100586.25
2018-09-19T17:05:39.319Z,100583.60
2018-09-19T17:08:03.281Z,100582.50
2018-09-19T17:10:27.144Z,100580.55
2018-09-19T17:12:51.056Z,100582.06
2018-09-19T17:15:15.093Z,100579.27
2018-09-19T17:17:39.614Z,100586.17
2018-09-19T17:20:03.576Z,100583.79
2018-09-19T17:22:27.553Z,100565.75
2018-09-19T17:24:51.464Z,100586.87
2018-09-19T17:27:15.541Z,100591.64
2018-09-19T17:29:39.439Z,100591.12
2018-09-19T17:32:03.579Z,100595.20
2018-09-19T17:34:27.723Z,100594.24
2018-09-19T17:36:51.672Z,100598.28
2018-09-19T17:39:15.738Z,100604.01
2018-09-19T17:41:39.692Z,100599.89
2018-09-19T17:44:03.644Z,100600.71
2018-09-19T17:46:27.678Z,100603.80
2018-09-19T17:48:51.637Z,100603.58
2018-09-19T17:51:15.927Z,100611.62
2018-09-19T17:53:39.846Z,100610.78
2018-09-19T17:56:03.830Z,100608.98
2018-09-19T17:58:27.919Z,100604.94
2018-09-19T18:00:51.925Z,100611.40
2018-09-19T18:03:15.848Z,100615.34
2018-09-19T18:05:39.893Z,100614.41
2018-09-19T18:08:03.921Z,100613.37
2018-09-19T18:10:27.894Z,100609.59
2018-09-19T18:12:51.816Z,100610.13
2018-09-19T18:15:15.829Z,100615.64
2018-09-19T18:17:39.804Z,100625.54
2018-09-19T18:20:03.804Z,100621.13
2018-09-19T18:22:27.765Z,100624.39
2018-09-19T18:24:51.723Z,100630.68
2018-09-19T18:27:15.665Z,100628.16
2018-09-19T18:29:39.630Z,100628.68
2018-09-19T18:32:03.638Z,100632.37
2018-09-19T18:34:27.618Z,100632.50
2018-09-19T18:36:51.717Z,100642.53
2018-09-19T18:39:15.677Z,100635.72
2018-09-19T18:41:39.595Z,100643.06
2018-09-19T18:44:03.682Z,100633.73
2018-09-19T18:46:27.608Z,100634.25
2018-09-19T18:48:51.573Z,100637.56
2018-09-19T18:51:15.538Z,100638.68
2018-09-19T18:53:39.459Z,100640.47
2018-09-19T18:56:03.365Z,100636.38
2018-09-19T18:58:27.344Z,100637.41
2018-09-19T19:00:51.296Z,100639.94
2018-09-19T19:03:15.375Z,100640.02
2018-09-19T19:05:39.348Z,100637.79
2018-09-19T19:08:04.223Z,100637.23
2018-09-19T19:10:28.080Z,100637.79
2018-09-19T19:12:52.024Z,100639.91
2018-09-19T19:15:15.932Z,100637.16
2018-09-19T19:17:40.059Z,100640.47
2018-09-19T19:20:04.099Z,100644.88
2018-09-19T19:22:28.038Z,100644.31
2018-09-19T19:24:51.953Z,100642.63
2018-09-19T19:27:15.887Z,100651.23
2018-09-19T19:29:39.813Z,100648.05
2018-09-19T19:32:03.763Z,100642.64
2018-09-19T19:34:27.712Z,100648.25
2018-09-19T19:36:51.650Z,100645.82
2018-09-19T19:39:15.603Z,100651.75
2018-09-19T19:41:39.504Z,100652.86
2018-09-19T19:44:03.505Z,100646.93
2018-09-19T19:46:27.501Z,100641.55
2018-09-19T19:48:51.410Z,100647.58
2018-09-19T19:51:15.355Z,100656.91
2018-09-19T19:53:39.259Z,100649.64
2018-09-19T19:56:03.241Z,100651.19
2018-09-19T19:58:27.307Z,100653.36
2018-09-19T20:00:51.271Z,100652.42
2018-09-19T20:03:15.195Z,100658.22
2018-09-19T20:05:39.249Z,100634.95
2018-09-19T20:08:03.455Z,100664.77
2018-09-19T20:10:27.465Z,100665.11
2018-09-19T20:12:51.330Z,100669.12
2018-09-19T20:15:15.260Z,100673.45
2018-09-19T20:17:39.153Z,100669.69
2018-09-19T20:20:03.209Z,100667.77
2018-09-19T20:22:27.167Z,100672.82
2018-09-19T20:24:51.076Z,100680.23
2018-09-19T20:27:15.046Z,100682.89
2018-09-19T20:29:38.992Z,100671.17
2018-09-19T20:32:02.936Z,100675.59
2018-09-19T20:34:26.923Z,100676.88
2018-09-19T20:36:50.989Z,100681.63
2018-09-19T20:39:14.916Z,100677.23
2018-09-19T20:41:38.891Z,100682.70
2018-09-19T20:44:02.800Z,100683.47
2018-09-19T20:46:26.675Z,100682.37
2018-09-19T20:48:50.670Z,100684.20
2018-09-19T20:51:14.546Z,100688.08
2018-09-19T20:53:38.701Z,100687.97
2018-09-19T20:56:02.631Z,100686.82
2018-09-19T20:58:26.560Z,100690.28
2018-09-19T21:00:50.555Z,100691.56
2018-09-19T21:03:14.458Z,100695.09
2018-09-19T21:05:38.426Z,100687.67
2018-09-19T21:08:02.375Z,100691.94
2018-09-19T21:10:26.312Z,100695.50
2018-09-19T21:12:50.254Z,100693.88
2018-09-19T21:15:14.170Z,100700.70
2018-09-19T21:17:38.086Z,100702.57
2018-09-19T21:20:01.992Z,100711.42
2018-09-19T21:22:26.093Z,100709.55
2018-09-19T21:24:49.879Z,100711.33
2018-09-19T21:27:13.777Z,100715.78
2018-09-19T21:29:37.700Z,100719.78
2018-09-19T21:32:01.628Z,100721.36
2018-09-19T21:34:25.604Z,100727.08
2018-09-19T21:36:49.474Z,100729.39
2018-09-19T21:39:13.372Z,100731.44
2018-09-19T21:41:37.476Z,100734.10
2018-09-19T21:44:01.469Z,100730.16
2018-09-19T21:46:25.440Z,100732.19
2018-09-19T21:48:49.310Z,100732.63
2018-09-19T21:51:13.273Z,100740.06
2018-09-19T21:53:37.172Z,100733.47
2018-09-19T21:56:01.132Z,100736.61
2018-09-19T21:58:25.063Z,100743.31
2018-09-19T22:00:54.316Z,100741.38
2018-09-19T22:03:18.481Z,100746.06
2018-09-19T22:05:42.382Z,100745.63
2018-09-19T22:08:06.323Z,100752.20
2018-09-19T22:10:30.574Z,100750.85
2018-09-19T22:12:54.455Z,100756.92
2018-09-19T22:15:18.363Z,100758.88
2018-09-19T22:17:42.303Z,100751.25
2018-09-19T22:20:06.240Z,100756.45
2018-09-19T22:22:30.146Z,100753.86
2018-09-19T22:24:54.064Z,100752.66
2018-09-19T22:27:17.943Z,100763.19
2018-09-19T22:29:41.815Z,100761.63
2018-09-19T22:32:05.692Z,100762.14
2018-09-19T22:34:29.631Z,100764.83
2018-09-19T22:36:53.500Z,100771.73
2018-09-19T22:39:17.385Z,100770.42
2018-09-19T22:41:41.286Z,100778.55
2018-09-19T22:44:05.315Z,100778.78
2018-09-19T22:46:29.237Z,100781.52
2018-09-19T22:48:53.136Z,100789.76
2018-09-19T22:51:17.118Z,100790.13
2018-09-19T22:53:41.013Z,100786.92
2018-09-19T22:56:05.029Z,100792.94
2018-09-19T22:58:28.923Z,100798.77
2018-09-19T23:00:52.837Z,100796.50
2018-09-19T23:03:16.762Z,100800.82
2018-09-19T23:05:40.669Z,100796.95
2018-09-19T23:08:04.586Z,100794.90
2018-09-19T23:10:28.452Z,100799.15
2018-09-19T23:12:52.415Z,100801.70
2018-09-19T23:15:16.312Z,100804.03
2018-09-19T23:17:40.184Z,100805.47
2018-09-19T23:20:04.465Z,100802.30
2018-09-19T23:22:28.351Z,100808.36
2018-09-19T23:24:52.339Z,100798.83
2018-09-19T23:27:16.251Z,100806.80
2018-09-19T23:29:40.182Z,100806.37
2018-09-19T23:32:04.098Z,100808.67
2018-09-19T23:34:27.961Z,100810.20
2018-09-19T23:36:51.897Z,100806.23
2018-09-19T23:39:15.831Z,100803.34
2018-09-19T23:41:39.728Z,100805.94
2018-09-19T23:44:03.614Z,100802.56
2018-09-19T23:46:27.536Z,100811.38
2018-09-19T23:48:51.431Z,100805.41
2018-09-19T23:51:15.333Z,100800.12
2018-09-19T23:53:39.214Z,100801.93
2018-09-19T23:56:03.275Z,100806.48
2018-09-19T23:58:27.154Z,100800.44
